Time;durP1;ratioP1;P1;durP2;ratioP2;P2;SDS_P1;SDS_P2;PMS_P1;PMS_P2;Temp;Humidity;BMP_temperature;BMP_pressure;BME280_temperature;BME280_humidity;BME280_pressure;Samples;Min_cycle;Max_cycle;Signal;HPM_P1;HPM_P2
2022/05/12 00:00:03;;;;;;;1999.90;999.90;;;;;;;21.73;42.10;95367.44;4985508;28;20114;-75
2022/05/12 00:02:29;;;;;;;1999.90;999.90;;;;;;;21.54;42.15;95338.59;5016017;28;20033;-75
2022/05/12 00:04:55;;;;;;;1999.90;999.90;;;;;;;21.58;42.26;95350.25;5035797;28;20042;-75
2022/05/12 00:07:21;;;;;;;1999.90;999.90;;;;;;;21.71;42.01;95365.13;5035993;28;20025;-75
2022/05/12 00:09:46;;;;;;;1999.90;999.90;;;;;;;21.57;42.20;95335.16;5035319;28;20029;-75
2022/05/12 00:12:12;;;;;;;1999.90;999.90;;;;;;;21.43;42.32;95316.81;5035760;28;20071;-75
2022/05/12 00:14:37;;;;;;;1999.90;999.90;;;;;;;20.89;42.34;95250.47;5035750;28;20029;-75
2022/05/12 00:17:03;;;;;;;1999.90;999.90;;;;;;;21.51;42.43;95336.66;5000928;28;20026;-76
2022/05/12 00:19:29;;;;;;;1999.90;999.90;;;;;;;21.44;42.41;95333.84;4994909;28;20112;-76
2022/05/12 00:21:55;;;;;;;1999.90;999.90;;;;;;;21.52;42.31;95343.63;5012679;28;20048;-76
2022/05/12 00:24:21;;;;;;;1999.90;999.90;;;;;;;21.62;42.52;95366.53;5012898;28;20482;-76
2022/05/12 00:26:46;;;;;;;1999.90;999.90;;;;;;;21.57;42.27;95364.94;5012978;28;20054;-75
2022/05/12 00:29:12;;;;;;;1999.90;999.90;;;;;;;21.35;42.13;95322.53;4994866;28;20099;-75
2022/05/12 00:31:39;;;;;;;1999.90;999.90;;;;;;;21.42;42.24;95331.50;5021484;28;20148;-74
2022/05/12 00:34:06;;;;;;;1999.90;999.90;;;;;;;21.56;42.30;95343.66;5014721;28;20029;-76
2022/05/12 00:36:31;;;;;;;1999.90;999.90;;;;;;;21.56;42.30;95349.06;5014946;28;20033;-75
2022/05/12 00:38:57;;;;;;;1999.90;999.90;;;;;;;21.67;42.09;95367.00;5014402;28;20022;-76
2022/05/12 00:41:22;;;;;;;1999.90;999.90;;;;;;;21.61;42.01;95357.66;5032533;28;20052;-74
2022/05/12 00:43:52;;;;;;;1999.90;999.90;;;;;;;21.47;42.34;95343.94;5032114;28;20026;-74
2022/05/12 00:46:26;;;;;;;1999.90;999.90;;;;;;;21.58;41.85;95341.34;5031175;28;20477;-73
2022/05/12 00:48:55;;;;;;;1999.90;999.90;;;;;;;21.72;41.77;95371.31;5031915;28;20013;-74
2022/05/12 00:51:27;;;;;;;1999.90;999.90;;;;;;;21.56;41.35;95330.91;5032140;28;20030;-76
2022/05/12 00:53:56;;;;;;;1999.90;999.90;;;;;;;21.59;41.37;95343.69;5032173;28;20075;-73
2022/05/12 00:56:23;;;;;;;1999.90;999.90;;;;;;;21.67;41.13;95356.16;5032153;28;20377;-74
2022/05/12 00:58:57;;;;;;;1999.90;999.90;;;;;;;21.80;41.01;95352.06;5031586;28;20571;-74
2022/05/12 01:01:22;;;;;;;1999.90;999.90;;;;;;;21.75;40.69;95338.88;5030742;28;20706;-74
2022/05/12 01:03:48;;;;;;;1999.90;999.90;;;;;;;21.88;40.64;95365.66;5031769;28;20037;-74
2022/05/12 01:06:14;;;;;;;1999.90;999.90;;;;;;;21.61;40.57;95324.38;5031938;28;20465;-73
2022/05/12 01:08:40;;;;;;;1999.90;999.90;;;;;;;21.89;40.63;95365.28;5031572;28;20029;-73
2022/05/12 01:11:12;;;;;;;1999.90;999.90;;;;;;;21.93;40.50;95359.91;5013816;28;20590;-74
2022/05/12 01:13:38;;;;;;;1999.90;999.90;;;;;;;21.93;40.48;95359.91;5014073;28;20029;-74
2022/05/12 01:16:05;;;;;;;1999.90;999.90;;;;;;;21.89;40.71;95359.09;5011520;28;20108;-75
2022/05/12 01:18:35;;;;;;;1999.90;999.90;;;;;;;22.00;40.47;95366.19;5011380;28;20022;-74
2022/05/12 01:21:01;;;;;;;1999.90;999.90;;;;;;;21.94;40.40;95353.34;5011876;28;20026;-73
2022/05/12 01:23:32;;;;;;;1999.90;999.90;;;;;;;22.03;40.28;95351.13;5011540;28;20377;-76
2022/05/12 01:26:01;;;;;;;1999.90;999.90;;;;;;;22.06;40.47;95369.34;5011801;28;20026;-74
2022/05/12 01:28:27;;;;;;;1999.90;999.90;;;;;;;21.99;40.60;95355.72;5010290;28;20583;-73
2022/05/12 01:30:52;;;;;;;1999.90;999.90;;;;;;;21.98;40.14;95346.03;5011418;28;20050;-73
2022/05/12 01:33:18;;;;;;;1999.90;999.90;;;;;;;21.94;40.42;95348.72;5011219;28;20040;-74
2022/05/12 01:35:43;;;;;;;1999.90;999.90;;;;;;;21.86;40.54;95333.56;5011615;28;20030;-76
2022/05/12 01:38:09;;;;;;;1999.90;999.90;;;;;;;21.84;40.50;95329.66;5011072;28;20037;-76
2022/05/12 01:40:34;;;;;;;1999.90;999.90;;;;;;;22.10;40.48;95369.38;5011463;28;20017;-75
2022/05/12 01:43:00;;;;;;;1999.90;999.90;;;;;;;21.98;40.36;95348.75;5011172;28;20026;-73
2022/05/12 01:45:26;;;;;;;1999.90;999.90;;;;;;;21.84;40.63;95332.34;4993613;28;20026;-73
2022/05/12 01:47:52;;;;;;;1999.90;999.90;;;;;;;21.85;40.63;95331.19;5025341;28;20031;-73
2022/05/12 01:50:19;;;;;;;1999.90;999.90;;;;;;;21.82;40.62;95351.69;5030815;28;20018;-73
2022/05/12 01:52:45;;;;;;;1999.90;999.90;;;;;;;21.87;40.67;95334.34;5031464;28;20052;-74
2022/05/12 01:55:15;;;;;;;1999.90;999.90;;;;;;;21.95;40.46;95346.78;5030775;28;20519;-74
2022/05/12 01:57:43;;;;;;;1999.90;999.90;;;;;;;22.08;40.73;95366.28;5030966;28;20033;-74
2022/05/12 02:00:15;;;;;;;1999.90;999.90;;;;;;;22.09;40.82;95367.81;5030265;28;20033;-73
2022/05/12 02:02:40;;;;;;;1999.90;999.90;;;;;;;22.12;40.94;95376.03;5029340;28;20039;-76
2022/05/12 02:05:09;;;;;;;1999.90;999.90;;;;;;;22.09;40.92;95374.00;5030430;28;20413;-73
2022/05/12 02:07:43;;;;;;;1999.90;999.90;;;;;;;22.10;40.76;95362.03;5030430;28;20524;-75
2022/05/12 02:10:12;;;;;;;1999.90;999.90;;;;;;;22.09;40.78;95360.47;5029285;28;20548;-76
2022/05/12 02:12:38;;;;;;;1999.90;999.90;;;;;;;21.99;40.81;95336.75;5012268;28;20029;-75
2022/05/12 02:15:05;;;;;;;1999.90;999.90;;;;;;;21.98;40.85;95341.41;5012798;28;20029;-73
2022/05/12 02:17:32;;;;;;;1999.90;999.90;;;;;;;22.05;40.58;95351.53;5028394;28;20105;-74
2022/05/12 02:19:58;;;;;;;1999.90;999.90;;;;;;;22.24;40.57;95374.97;5030102;28;20493;-74
2022/05/12 02:22:24;;;;;;;1999.90;999.90;;;;;;;22.20;40.34;95369.50;5030403;28;20108;-73
2022/05/12 02:24:49;;;;;;;1999.90;999.90;;;;;;;22.31;40.05;95383.94;5030179;28;20125;-75
2022/05/12 02:27:15;;;;;;;1999.90;999.90;;;;;;;22.18;40.27;95355.56;5030226;28;20044;-73
2022/05/12 02:29:40;;;;;;;1999.90;999.90;;;;;;;22.28;40.22;95370.38;5030103;28;20072;-73
2022/05/12 02:32:06;;;;;;;1999.90;999.90;;;;;;;22.25;40.06;95362.97;5023861;28;20030;-76
2022/05/12 02:34:31;;;;;;;1999.90;999.90;;;;;;;22.26;40.31;95375.34;5009898;28;20034;-74
2022/05/12 02:37:00;;;;;;;1999.90;999.90;;;;;;;22.36;40.18;95379.31;5010333;28;20018;-73
2022/05/12 02:39:31;;;;;;;1999.90;999.90;;;;;;;22.38;40.09;95382.47;5009884;28;20463;-73
2022/05/12 02:41:57;;;;;;;1999.90;999.90;;;;;;;22.38;40.04;95366.97;5010308;28;20459;-74
2022/05/12 02:44:22;;;;;;;1999.90;999.90;;;;;;;22.25;39.94;95361.03;5010289;28;20041;-73
2022/05/12 02:46:48;;;;;;;1999.90;999.90;;;;;;;22.34;39.64;95357.25;5009805;28;20030;-74
2022/05/12 02:49:14;;;;;;;1999.90;999.90;;;;;;;22.48;39.58;95389.91;5009856;28;20105;-73
2022/05/12 02:51:39;;;;;;;1999.90;999.90;;;;;;;22.31;39.97;95361.47;5010401;28;20034;-74
2022/05/12 02:54:05;;;;;;;1999.90;999.90;;;;;;;22.68;39.32;95388.53;4992628;28;20029;-74
2022/05/12 02:56:30;;;;;;;1999.90;999.90;;;;;;;22.44;39.14;95351.91;4992730;28;20037;-73
2022/05/12 02:58:55;;;;;;;1999.90;999.90;;;;;;;22.26;39.60;95388.91;5009188;28;20057;-74
2022/05/12 03:01:21;;;;;;;1999.90;999.90;;;;;;;22.57;38.70;95374.06;4992803;28;20073;-74
2022/05/12 03:03:46;;;;;;;1999.90;999.90;;;;;;;22.58;38.92;95351.25;5008827;28;20108;-73
2022/05/12 03:06:12;;;;;;;1999.90;999.90;;;;;;;22.89;38.73;95403.44;5012576;28;20438;-73
2022/05/12 03:08:42;;;;;;;1999.90;999.90;;;;;;;22.15;39.51;95375.25;5029772;28;20022;-74
2022/05/12 03:11:08;;;;;;;1999.90;999.90;;;;;;;22.79;38.47;95359.53;5029630;28;20087;-74
2022/05/12 03:13:33;;;;;;;1999.90;999.90;;;;;;;22.63;38.72;95383.44;5023341;28;20033;-76
2022/05/12 03:15:59;;;;;;;1999.90;999.90;;;;;;;22.38;39.31;95371.63;4992602;28;20068;-74
2022/05/12 03:18:25;;;;;;;1999.90;999.90;;;;;;;22.65;39.01;95405.53;5010107;28;20037;-74
2022/05/12 03:20:50;;;;;;;1999.90;999.90;;;;;;;22.43;39.10;95366.63;5009918;28;20104;-73
2022/05/12 03:23:17;;;;;;;1999.90;999.90;;;;;;;22.80;38.48;95385.50;5009716;28;20052;-74
2022/05/12 03:25:45;;;;;;;1999.90;999.90;;;;;;;22.52;38.48;95374.44;5010108;28;20022;-74
2022/05/12 03:28:11;;;;;;;1999.90;999.90;;;;;;;22.83;37.92;95370.44;5009635;28;20022;-75
2022/05/12 03:30:37;;;;;;;1999.90;999.90;;;;;;;22.90;38.27;95418.53;4992268;28;20517;-74
2022/05/12 03:33:02;;;;;;;1999.90;999.90;;;;;;;22.72;38.28;95421.84;5000449;28;20025;-74
2022/05/12 03:35:28;;;;;;;1999.90;999.90;;;;;;;22.40;38.86;95407.25;5029588;28;20033;-73
2022/05/12 03:37:54;;;;;;;1999.90;999.90;;;;;;;21.89;39.86;95405.13;5029479;28;20029;-74
2022/05/12 03:40:20;;;;;;;1999.90;999.90;;;;;;;22.25;38.72;95393.56;5029260;28;20339;-73
2022/05/12 03:42:46;;;;;;;1999.90;999.90;;;;;;;22.48;38.89;95427.84;5029507;28;20029;-74
2022/05/12 03:45:13;;;;;;;1999.90;999.90;;;;;;;22.61;38.33;95420.97;5029347;28;20061;-73
2022/05/12 03:47:40;;;;;;;1999.90;999.90;;;;;;;22.28;39.33;95435.41;5010178;28;20025;-74
2022/05/12 03:50:17;;;;;;;1999.90;999.90;;;;;;;22.31;39.37;95413.72;5029101;28;20060;-74
2022/05/12 03:52:43;;;;;;;1999.90;999.90;;;;;;;22.06;39.63;95428.94;5013665;28;20054;-73
2022/05/12 03:55:17;;;;;;;1999.90;999.90;;;;;;;22.63;38.10;95429.53;5015263;28;20067;-75
2022/05/12 03:57:44;;;;;;;1999.90;999.90;;;;;;;22.60;38.39;95435.69;5015609;28;20094;-74
2022/05/12 04:00:14;;;;;;;1999.90;999.90;;;;;;;22.37;38.66;95435.88;5021638;28;20037;-74
2022/05/12 04:02:39;;;;;;;1999.90;999.90;;;;;;;22.50;38.38;95422.81;5031120;28;20037;-74
2022/05/12 04:05:07;;;;;;;1999.90;999.90;;;;;;;22.75;38.23;95448.22;5033058;28;20413;-74
2022/05/12 04:07:33;;;;;;;1999.90;999.90;;;;;;;22.87;38.00;95465.38;5031966;28;20100;-74
2022/05/12 04:10:02;;;;;;;1999.90;999.90;;;;;;;22.92;37.99;95465.06;5041515;23;20028;-67
2022/05/12 04:12:27;;;;;;;1999.90;999.90;;;;;;;23.25;37.23;95464.94;4973744;28;20085;-65
2022/05/12 04:14:54;;;;;;;1999.90;999.90;;;;;;;23.17;37.79;95465.25;4956421;28;20735;-66
2022/05/12 04:17:19;;;;;;;1999.90;999.90;;;;;;;22.72;37.96;95473.38;4973766;28;20031;-67
2022/05/12 04:19:50;;;;;;;1999.90;999.90;;;;;;;23.35;37.03;95464.22;4992022;28;20571;-67
2022/05/12 04:22:17;;;;;;;1999.90;999.90;;;;;;;23.48;37.19;95480.19;4975237;28;20022;-67
2022/05/12 04:24:43;;;;;;;1999.90;999.90;;;;;;;23.33;37.15;95471.94;4992948;28;20030;-65
2022/05/12 04:27:10;;;;;;;1999.90;999.90;;;;;;;23.44;36.63;95476.66;4975086;28;20073;-66
2022/05/12 04:29:37;;;;;;;1999.90;999.90;;;;;;;23.04;37.14;95476.41;4975016;28;20030;-66
2022/05/12 04:32:03;;;;;;;1999.90;999.90;;;;;;;23.30;37.13;95486.28;4975218;28;20383;-64
2022/05/12 04:37:12;;;;;;;1999.90;999.90;;;;;;;24.12;35.80;95475.13;4993127;28;20037;-66
2022/05/12 04:39:37;;;;;;;1999.90;999.90;;;;;;;23.24;35.73;95409.09;4992357;28;20026;-67
2022/05/12 04:42:04;;;;;;;1999.90;999.90;;;;;;;23.65;35.87;95479.56;4992630;28;20018;-67
2022/05/12 04:44:29;;;;;;;1999.90;999.90;;;;;;;24.28;35.38;95497.28;4975101;28;20493;-67
2022/05/12 04:46:55;;;;;;;1999.90;999.90;;;;;;;23.13;37.01;95486.91;4975395;28;20034;-67
2022/05/12 04:49:20;;;;;;;1999.90;999.90;;;;;;;23.74;36.04;95487.34;4991311;28;20031;-66
2022/05/12 04:51:46;;;;;;;1999.90;999.90;;;;;;;24.09;35.64;95494.88;4992414;28;20101;-66
2022/05/12 04:54:11;;;;;;;1999.90;999.90;;;;;;;24.32;34.63;95506.25;4992439;28;20030;-67
2022/05/12 04:56:37;;;;;;;1999.90;999.90;;;;;;;23.77;35.96;95500.97;4974919;28;20534;-66
2022/05/12 04:59:04;;;;;;;1999.90;999.90;;;;;;;24.17;35.61;95512.03;4991925;28;20022;-67
2022/05/12 05:01:30;;;;;;;1999.90;999.90;;;;;;;23.57;35.86;95515.94;4992252;28;20398;-67
2022/05/12 05:03:59;;;;;;;1999.90;999.90;;;;;;;23.22;36.19;95483.88;4991010;28;20030;-67
2022/05/12 05:06:26;;;;;;;1999.90;999.90;;;;;;;23.41;36.54;95529.00;4992113;28;20463;-66
2022/05/12 05:08:51;;;;;;;1999.90;999.90;;;;;;;23.59;36.39;95541.53;4974273;28;20025;-66
2022/05/12 05:11:17;;;;;;;1999.90;999.90;;;;;;;23.31;36.15;95531.28;4974303;28;20038;-67
2022/05/12 05:13:42;;;;;;;1999.90;999.90;;;;;;;23.34;36.31;95532.47;4974559;28;20018;-67
2022/05/12 05:16:07;;;;;;;1999.90;999.90;;;;;;;22.98;36.87;95542.22;4992003;28;20065;-67
2022/05/12 05:18:36;;;;;;;1999.90;999.90;;;;;;;24.04;35.34;95544.94;4990786;28;20034;-69
2022/05/12 05:21:02;;;;;;;1999.90;999.90;;;;;;;23.66;35.56;95542.78;4974113;28;20030;-67
2022/05/12 05:23:28;;;;;;;1999.90;999.90;;;;;;;24.27;34.91;95549.34;4991494;28;20026;-66
2022/05/12 05:25:53;;;;;;;1999.90;999.90;;;;;;;23.55;36.17;95540.75;4991819;28;20026;-66
2022/05/12 05:28:20;;;;;;;1999.90;999.90;;;;;;;24.16;35.12;95564.78;4973665;28;20018;-66
2022/05/12 05:30:45;;;;;;;1999.90;999.90;;;;;;;24.25;34.93;95565.22;4991626;28;20030;-66
2022/05/12 05:33:11;;;;;;;1999.90;999.90;;;;;;;24.85;34.20;95559.25;4990745;28;20357;-65
2022/05/12 05:35:36;;;;;;;1999.90;999.90;;;;;;;24.44;35.05;95572.34;4991654;28;20431;-66
2022/05/12 05:38:02;;;;;;;1999.90;999.90;;;;;;;24.95;34.03;95572.09;4991075;28;20110;-66
2022/05/12 05:40:31;;;;;;;1999.90;999.90;;;;;;;25.28;33.32;95578.38;4973807;28;20414;-66
2022/05/12 05:42:57;;;;;;;1999.90;999.90;;;;;;;25.80;33.19;95598.66;4973770;28;20022;-66
2022/05/12 05:45:24;;;;;;;1999.90;999.90;;;;;;;26.22;32.73;95588.06;4991450;28;20034;-66
2022/05/12 05:47:54;;;;;;;1999.90;999.90;;;;;;;26.58;31.85;95586.00;4991369;28;20023;-66
2022/05/12 05:50:23;;;;;;;1999.90;999.90;;;;;;;26.97;31.72;95604.91;4990062;28;20483;-67
2022/05/12 05:55:33;;;;;;;1999.90;999.90;;;;;;;26.08;31.57;95597.03;4991307;28;20069;-67
2022/05/12 05:58:00;;;;;;;1999.90;999.90;;;;;;;26.44;31.52;95612.16;4990517;28;20030;-66
2022/05/12 06:00:26;;;;;;;1999.90;999.90;;;;;;;26.74;31.10;95597.25;4990821;28;20027;-66
2022/05/12 06:02:51;;;;;;;1999.90;999.90;;;;;;;26.23;31.69;95603.25;4973554;28;20026;-67
2022/05/12 06:05:17;;;;;;;1999.90;999.90;;;;;;;26.94;31.41;95611.19;4990012;28;20034;-67
2022/05/12 06:07:44;;;;;;;1999.90;999.90;;;;;;;26.67;32.00;95598.06;4990942;28;20097;-67
2022/05/12 06:10:10;;;;;;;1999.90;999.90;;;;;;;24.97;33.67;95631.56;4990161;28;20058;-67
2022/05/12 06:12:35;;;;;;;1999.90;999.90;;;;;;;26.23;32.40;95620.38;4990700;28;20131;-67
2022/05/12 06:15:01;;;;;;;1999.90;999.90;;;;;;;26.62;31.59;95627.72;4990128;28;20751;-67
2022/05/12 06:17:26;;;;;;;1999.90;999.90;;;;;;;26.57;31.65;95617.19;4990831;28;20018;-67
2022/05/12 06:19:52;;;;;;;1999.90;999.90;;;;;;;26.66;31.65;95636.63;4971798;28;20026;-68
2022/05/12 06:22:20;;;;;;;1999.90;999.90;;;;;;;26.51;32.18;95640.59;4990463;28;20084;-67
2022/05/12 06:24:47;;;;;;;1999.90;999.90;;;;;;;26.65;31.25;95626.91;4991232;28;20034;-67
2022/05/12 06:27:14;;;;;;;1999.90;999.90;;;;;;;25.85;32.38;95628.25;4990899;28;20036;-67
2022/05/12 06:29:41;;;;;;;1999.90;999.90;;;;;;;26.65;31.17;95626.91;4972647;28;20109;-67
2022/05/12 06:32:07;;;;;;;1999.90;999.90;;;;;;;26.33;31.93;95644.13;4990777;28;20026;-67
2022/05/12 06:34:32;;;;;;;1999.90;999.90;;;;;;;26.81;31.33;95638.13;4997619;28;20052;-67
2022/05/12 06:36:59;;;;;;;1999.90;999.90;;;;;;;26.41;31.58;95628.50;5010152;28;20030;-68
2022/05/12 06:39:25;;;;;;;1999.90;999.90;;;;;;;26.38;32.31;95632.03;4992122;28;20022;-66
2022/05/12 06:41:50;;;;;;;1999.90;999.90;;;;;;;27.38;30.37;95626.94;5010066;28;20028;-67
2022/05/12 06:44:15;;;;;;;1999.90;999.90;;;;;;;26.12;32.54;95638.72;5009827;28;20441;-66
2022/05/12 06:46:42;;;;;;;1999.90;999.90;;;;;;;27.45;30.19;95637.81;5009413;28;20030;-67
2022/05/12 06:49:08;;;;;;;1999.90;999.90;;;;;;;27.19;31.05;95622.75;5004457;28;20030;-67
2022/05/12 06:51:34;;;;;;;1999.90;999.90;;;;;;;27.87;29.42;95625.00;4990437;28;20036;-67
2022/05/12 06:53:59;;;;;;;1999.90;999.90;;;;;;;26.46;31.83;95643.72;4990419;28;20026;-70
2022/05/12 06:56:25;;;;;;;1999.90;999.90;;;;;;;25.09;33.67;95637.50;4990279;28;20112;-71
2022/05/12 06:58:51;;;;;;;1999.90;999.90;;;;;;;26.02;32.43;95643.00;4987697;28;20489;-71
2022/05/12 07:01:16;;;;;;;1999.90;999.90;;;;;;;25.60;31.83;95643.78;4979538;28;20030;-71
2022/05/12 07:03:42;;;;;;;1999.90;999.90;;;;;;;25.38;33.34;95654.63;4972815;28;20035;-70
2022/05/12 07:06:08;;;;;;;1999.90;999.90;;;;;;;25.99;32.43;95615.75;4971825;28;20128;-71
2022/05/12 07:08:41;;;;;;;1999.90;999.90;;;;;;;26.25;31.87;95658.94;4987910;28;20035;-70
2022/05/12 07:11:08;;;;;;;1999.90;999.90;;;;;;;25.75;32.20;95650.81;4981137;28;20046;-70
2022/05/12 07:13:34;;;;;;;1999.90;999.90;;;;;;;25.70;31.73;95664.03;4970569;28;20034;-70
2022/05/12 07:16:01;;;;;;;1999.90;999.90;;;;;;;26.74;29.96;95670.16;4987101;28;20030;-67
2022/05/12 07:18:26;;;;;;;1999.90;999.90;;;;;;;26.08;31.46;95643.38;4987066;28;20554;-70
2022/05/12 07:26:40;;;;;;;1999.90;999.90;;;;;;;25.57;32.80;95661.66;4987752;28;20414;-71
2022/05/12 07:29:13;;;;;;;1999.90;999.90;;;;;;;26.44;31.75;95664.00;4987986;28;20054;-70
2022/05/12 07:31:39;;;;;;;1999.90;999.90;;;;;;;25.37;31.88;95592.41;4970579;28;20049;-74
2022/05/12 07:34:05;;;;;;;1999.90;999.90;;;;;;;26.38;31.26;95657.34;4993153;28;20030;-69
2022/05/12 07:36:36;;;;;;;1999.90;999.90;;;;;;;25.28;33.40;95677.19;4984491;28;20117;-70
2022/05/12 07:39:03;;;;;;;1999.90;999.90;;;;;;;25.58;32.85;95659.72;4991067;28;20105;-74
2022/05/12 07:41:29;;;;;;;1999.90;999.90;;;;;;;25.55;32.82;95660.50;4993243;28;20034;-70
2022/05/12 07:43:55;;;;;;;1999.90;999.90;;;;;;;26.44;31.87;95671.41;4992493;28;20561;-72
2022/05/12 07:46:23;;;;;;;1999.90;999.90;;;;;;;26.98;30.96;95650.16;4990982;28;20043;-69
2022/05/12 07:48:50;;;;;;;1999.90;999.90;;;;;;;27.90;30.88;95662.50;4992582;28;20042;-71
2022/05/12 07:51:17;;;;;;;1999.90;999.90;;;;;;;27.96;29.53;95668.28;5005122;28;20470;-75
2022/05/12 07:53:46;;;;;;;1999.90;999.90;;;;;;;28.29;29.44;95671.50;4993949;28;20431;-66
2022/05/12 07:56:12;;;;;;;1999.90;999.90;;;;;;;29.16;28.38;95656.47;4992666;28;20468;-66
2022/05/12 07:58:38;;;;;;;1999.90;999.90;;;;;;;27.71;29.30;95682.16;4970205;28;20480;-68
2022/05/12 08:01:05;;;;;;;1999.90;999.90;;;;;;;25.73;32.37;95679.59;4986294;28;20076;-67
2022/05/12 08:03:31;;;;;;;1999.90;999.90;;;;;;;26.53;31.38;95657.34;4976472;28;20049;-67
2022/05/12 08:05:58;;;;;;;1999.90;999.90;;;;;;;25.74;32.85;95679.19;4993061;28;20109;-67
2022/05/12 08:08:24;;;;;;;1999.90;999.90;;;;;;;25.40;33.22;95667.88;4976244;28;20478;-67
2022/05/12 08:10:49;;;;;;;1999.90;999.90;;;;;;;26.54;32.92;95683.47;4993981;28;20030;-68
2022/05/12 08:13:16;;;;;;;1999.90;999.90;;;;;;;27.49;30.79;95673.31;4976638;28;20390;-68
2022/05/12 08:15:52;;;;;;;1999.90;999.90;;;;;;;28.23;30.81;95677.41;4974650;28;20551;-68
2022/05/12 08:18:23;;;;;;;1999.90;999.90;;;;;;;28.85;29.31;95683.81;4992729;28;20510;-68
2022/05/12 08:20:49;;;;;;;;;;;;;;;28.11;30.28;95677.16;4992913;28;20033;-68
2022/05/12 08:23:15;;;;;;;1999.90;999.90;;;;;;;28.01;30.06;95661.63;4975646;28;19918;-68
2022/05/12 08:25:42;;;;;;;1999.90;999.90;;;;;;;27.84;30.59;95675.00;4992960;28;20030;-66
2022/05/12 08:28:09;;;;;;;1999.90;999.90;;;;;;;26.16;32.83;95659.34;4974399;28;20442;-68
2022/05/12 08:30:34;;;;;;;1999.90;999.90;;;;;;;25.05;34.76;95653.00;4989684;28;20034;-68
2022/05/12 08:33:00;;;;;;;1999.90;999.90;;;;;;;26.55;32.39;95665.91;4991012;28;20027;-67
2022/05/12 08:35:27;;;;;;;1999.90;999.90;;;;;;;25.85;33.47;95671.84;4990948;28;20132;-70
2022/05/12 08:37:53;;;;;;;1999.90;999.90;;;;;;;25.57;34.42;95688.13;4992440;28;20035;-70
2022/05/12 08:40:43;;;;;;;1999.90;999.90;;;;;;;26.01;33.67;95690.53;4991440;28;20129;-70
2022/05/12 08:43:18;;;;;;;1999.90;999.90;;;;;;;26.39;32.85;95658.13;4992796;28;20145;-69
2022/05/12 08:45:45;;;;;;;1999.90;999.90;;;;;;;26.34;32.87;95675.66;4988132;28;20042;-69
2022/05/12 08:48:13;;;;;;;1999.90;999.90;;;;;;;25.67;34.16;95685.41;4974524;28;20030;-69
2022/05/12 08:50:40;;;;;;;1999.90;999.90;;;;;;;26.29;33.49;95689.72;4995638;28;20030;-69
2022/05/12 08:53:16;;;;;;;1999.90;999.90;;;;;;;26.21;33.46;95693.63;4975398;28;20375;-69
2022/05/12 08:55:54;;;;;;;1999.90;999.90;;;;;;;26.63;32.93;95664.72;4991494;28;20037;-69
2022/05/12 08:58:26;;;;;;;1999.90;999.90;;;;;;;25.74;34.39;95703.72;4973728;28;20030;-69
2022/05/12 09:01:01;;;;;;;1999.90;999.90;;;;;;;26.55;33.16;95685.00;4989705;28;20105;-69
2022/05/12 09:03:30;;;;;;;1999.90;999.90;;;;;;;27.06;32.68;95692.63;4973827;28;20026;-69
2022/05/12 09:06:03;;;;;;;1999.90;999.90;;;;;;;27.39;32.05;95688.59;4986843;28;20030;-70
2022/05/12 09:08:45;;;;;;;1999.90;999.90;;;;;;;26.00;34.74;95688.97;4970589;28;20033;-71
2022/05/12 09:11:25;;;;;;;1999.90;999.90;;;;;;;27.25;32.88;95666.03;4972912;28;20505;-70
2022/05/12 09:13:53;;;;;;;1999.90;999.90;;;;;;;26.59;33.62;95675.66;4992478;28;20057;-68
2022/05/12 09:16:32;;;;;;;1999.90;999.90;;;;;;;26.04;34.48;95673.38;4992235;28;20471;-69
2022/05/12 09:18:58;;;;;;;1999.90;999.90;;;;;;;27.14;32.99;95688.72;4991649;28;20034;-69
2022/05/12 09:21:28;;;;;;;1999.90;999.90;;;;;;;26.53;33.94;95685.41;4985278;28;20022;-70
2022/05/12 09:23:55;;;;;;;1999.90;999.90;;;;;;;27.33;33.27;95687.47;4987060;28;20384;-69
2022/05/12 09:26:46;;;;;;;1999.90;999.90;;;;;;;26.04;35.06;95688.94;4970439;28;20062;-69
2022/05/12 09:29:20;;;;;;;1999.90;999.90;;;;;;;27.28;32.99;95685.16;4991365;28;20101;-69
2022/05/12 09:31:56;;;;;;;1999.90;999.90;;;;;;;26.92;33.47;95681.75;4990705;28;20065;-69
2022/05/12 09:34:37;;;;;;;1999.90;999.90;;;;;;;26.92;33.16;95696.22;4969263;28;20018;-70
2022/05/12 09:37:26;;;;;;;1999.90;999.90;;;;;;;27.30;32.83;95698.41;4989591;28;20030;-69
2022/05/12 09:39:56;;;;;;;1999.90;999.90;;;;;;;27.24;31.99;95702.72;4989825;28;20395;-70
2022/05/12 09:42:27;;;;;;;1999.90;999.90;;;;;;;27.73;32.75;95698.94;4990028;28;20383;-69
2022/05/12 09:45:22;;;;;;;1999.90;999.90;;;;;;;27.12;33.30;95706.66;4969714;28;20030;-69
2022/05/12 09:47:47;;;;;;;1999.90;999.90;;;;;;;26.38;33.65;95681.91;4986794;28;20043;-69
2022/05/12 09:50:32;;;;;;;1999.90;999.90;;;;;;;26.66;33.69;95702.13;4971591;28;20172;-69
2022/05/12 09:53:01;;;;;;;1999.90;999.90;;;;;;;26.63;33.66;95694.75;4990022;28;20387;-67
2022/05/12 09:55:30;;;;;;;1999.90;999.90;;;;;;;28.03;32.62;95697.53;4971814;28;20057;-68
2022/05/12 09:58:01;;;;;;;1999.90;999.90;;;;;;;28.28;32.15;95678.16;4991229;28;20144;-68
2022/05/12 10:00:40;;;;;;;1999.90;999.90;;;;;;;28.10;32.00;95673.66;4988864;28;20038;-68
2022/05/12 10:09:04;;;;;;;1999.90;999.90;;;;;;;26.45;34.67;95702.97;5010371;28;20505;-71
2022/05/12 10:11:34;;;;;;;1999.90;999.90;;;;;;;27.25;32.43;95676.97;4989285;28;20269;-70
2022/05/12 10:14:04;;;;;;;1999.90;999.90;;;;;;;25.70;33.47;95681.16;4973699;28;20053;-70
2022/05/12 10:16:31;;;;;;;1999.90;999.90;;;;;;;25.66;33.39;95700.22;4987707;28;20037;-70
2022/05/12 10:19:04;;;;;;;1999.90;999.90;;;;;;;25.70;33.87;95699.44;4972885;28;20023;-69
2022/05/12 10:21:47;;;;;;;1999.90;999.90;;;;;;;25.89;34.04;95688.94;4997492;28;20072;-67
2022/05/12 10:24:27;;;;;;;1999.90;999.90;;;;;;;26.71;33.72;95696.25;4989381;28;20030;-66
2022/05/12 10:27:19;;;;;;;1999.90;999.90;;;;;;;26.49;33.46;95690.09;4988837;28;20037;-67
2022/05/12 10:29:54;;;;;;;1999.90;999.90;;;;;;;26.17;33.67;95698.31;4970860;28;20149;-67
2022/05/12 10:32:54;;;;;;;1999.90;999.90;;;;;;;26.17;33.24;95706.47;4987509;28;20141;-66
2022/05/12 10:35:42;;;;;;;1999.90;999.90;;;;;;;27.77;30.15;95686.00;4959090;28;20049;-66
2022/05/12 10:38:14;;;;;;;1999.90;999.90;;;;;;;27.91;29.36;95666.00;4980466;28;20074;-67
2022/05/12 10:40:48;;;;;;;1999.90;999.90;;;;;;;28.36;29.49;95671.47;4982534;28;20046;-67
2022/05/12 10:43:33;;;;;;;1999.90;999.90;;;;;;;28.48;28.67;95690.88;4990540;28;20030;-66
2022/05/12 10:46:05;;;;;;;1999.90;999.90;;;;;;;27.79;29.09;95680.91;4988378;28;20105;-66
2022/05/12 10:49:05;;;;;;;1999.90;999.90;;;;;;;27.75;29.71;95688.38;4971771;28;20157;-67
2022/05/12 10:51:37;;;;;;;1999.90;999.90;;;;;;;28.35;28.42;95680.84;4976501;28;20034;-65
2022/05/12 10:54:27;;;;;;;1999.90;999.90;;;;;;;28.78;28.22;95669.47;4968512;28;20035;-66
2022/05/12 10:56:53;;;;;;;1999.90;999.90;;;;;;;29.34;26.82;95686.38;4982731;28;20109;-66
2022/05/12 10:59:21;;;;;;;1999.90;999.90;;;;;;;27.68;29.30;95678.22;4965610;28;20639;-66
2022/05/12 11:02:01;;;;;;;1999.90;999.90;;;;;;;27.69;29.07;95684.47;4966020;28;20022;-67
2022/05/12 11:04:41;;;;;;;1999.90;999.90;;;;;;;27.56;30.43;95692.38;4990202;28;20034;-66
2022/05/12 11:07:15;;;;;;;1999.90;999.90;;;;;;;26.33;30.51;95655.03;4970225;28;20036;-66
2022/05/12 11:09:55;;;;;;;1999.90;999.90;;;;;;;27.67;30.03;95678.63;4989897;28;20030;-67
2022/05/12 11:12:28;;;;;;;1999.90;999.90;;;;;;;27.39;30.05;95672.19;4969729;28;20027;-70
2022/05/12 11:15:06;;;;;;;1999.90;999.90;;;;;;;28.04;29.47;95669.78;4952391;28;20037;-67
2022/05/12 11:17:42;;;;;;;1999.90;999.90;;;;;;;27.51;29.73;95664.69;4969968;28;20027;-68